createdAt,value
2019-02-12T00:00:05.006Z,0
2019-02-12T00:01:14.683Z,0
2019-02-12T00:02:24.631Z,0
2019-02-12T00:03:34.074Z,0
2019-02-12T00:04:44.008Z,0
2019-02-12T00:05:53.947Z,0
2019-02-12T00:07:03.884Z,0
2019-02-12T00:08:13.877Z,0
2019-02-12T00:09:23.816Z,0
2019-02-12T00:10:33.740Z,0
2019-02-12T00:11:43.667Z,0
2019-02-12T00:12:53.344Z,0
2019-02-12T00:14:03.273Z,0
2019-02-12T00:15:12.956Z,0
2019-02-12T00:16:22.641Z,0
2019-02-12T00:17:32.071Z,0
2019-02-12T00:18:41.493Z,0
2019-02-12T00:19:51.412Z,0
2019-02-12T00:21:08.891Z,0
2019-02-12T00:22:18.705Z,0
2019-02-12T00:23:28.661Z,0
2019-02-12T00:24:38.338Z,0
2019-02-12T00:25:47.771Z,0
2019-02-12T00:26:57.779Z,0
2019-02-12T00:28:07.712Z,0
2019-02-12T00:29:16.892Z,0
2019-02-12T00:30:26.566Z,0
2019-02-12T00:31:35.762Z,0
2019-02-12T00:32:45.711Z,0
2019-02-12T00:33:55.640Z,0
2019-02-12T00:35:05.078Z,0
2019-02-12T00:36:15.017Z,0
2019-02-12T00:37:24.981Z,0
2019-02-12T00:38:34.933Z,0
2019-02-12T00:39:44.614Z,0
2019-02-12T00:40:54.301Z,0
2019-02-12T00:42:04.232Z,0
2019-02-12T00:43:13.924Z,0
2019-02-12T00:44:23.848Z,0
2019-02-12T00:45:33.276Z,0
2019-02-12T00:46:42.947Z,0
2019-02-12T00:47:52.381Z,0
2019-02-12T00:49:02.317Z,0
2019-02-12T00:50:11.752Z,0
2019-02-12T00:51:25.158Z,0
2019-02-12T00:52:34.331Z,0
2019-02-12T00:53:43.758Z,0
2019-02-12T00:54:53.465Z,0
2019-02-12T00:56:02.904Z,0
2019-02-12T00:57:12.582Z,0
2019-02-12T00:58:22.013Z,0
2019-02-12T00:59:31.964Z,0
2019-02-12T01:00:41.701Z,0
2019-02-12T01:01:51.163Z,0
2019-02-12T01:03:00.885Z,0
2019-02-12T01:04:10.576Z,0
2019-02-12T01:05:20.014Z,0
2019-02-12T01:06:29.457Z,0
2019-02-12T01:07:39.160Z,0
2019-02-12T01:08:48.589Z,0
2019-02-12T01:09:58.297Z,0
2019-02-12T01:11:08.337Z,0
2019-02-12T01:12:18.330Z,0
2019-02-12T01:13:28.018Z,0
2019-02-12T01:14:37.706Z,0
2019-02-12T01:15:47.128Z,0
2019-02-12T01:16:56.564Z,0
2019-02-12T01:18:05.992Z,0
2019-02-12T01:19:15.421Z,0
2019-02-12T01:20:25.106Z,0
2019-02-12T01:21:34.552Z,0
2019-02-12T01:22:43.977Z,0
2019-02-12T01:23:53.651Z,0
2019-02-12T01:25:03.330Z,0
2019-02-12T01:26:13.003Z,0
2019-02-12T01:27:22.450Z,0
2019-02-12T01:28:31.879Z,0
2019-02-12T01:29:41.315Z,0
2019-02-12T01:30:50.768Z,0
2019-02-12T01:32:00.699Z,0
2019-02-12T01:33:10.406Z,0
2019-02-12T01:34:20.350Z,0
2019-02-12T01:35:29.783Z,0
2019-02-12T01:36:38.962Z,0
2019-02-12T01:37:48.892Z,0
2019-02-12T01:38:58.838Z,0
2019-02-12T01:40:08.530Z,0
2019-02-12T01:41:17.969Z,0
2019-02-12T01:42:27.938Z,0
2019-02-12T01:43:37.618Z,0
2019-02-12T01:44:47.303Z,0
2019-02-12T01:45:57.243Z,0
2019-02-12T01:47:07.173Z,0
2019-02-12T01:48:16.872Z,0
2019-02-12T01:49:26.578Z,0
2019-02-12T01:50:36.262Z,0
2019-02-12T01:51:45.786Z,0
2019-02-12T01:52:55.230Z,0
2019-02-12T01:54:05.151Z,0
2019-02-12T01:55:14.823Z,0
2019-02-12T01:56:24.515Z,0
2019-02-12T01:57:34.487Z,0
2019-02-12T01:58:44.430Z,0
2019-02-12T01:59:53.870Z,0
2019-02-12T02:01:03.565Z,0
2019-02-12T02:02:13.263Z,0
2019-02-12T02:03:22.956Z,0
2019-02-12T02:04:32.151Z,0
2019-02-12T02:05:41.835Z,0
2019-02-12T02:06:51.513Z,0
2019-02-12T02:08:01.479Z,0
2019-02-12T02:09:10.408Z,0
2019-02-12T02:10:20.115Z,0
2019-02-12T02:11:30.042Z,0
2019-02-12T02:12:39.491Z,0
2019-02-12T02:13:48.915Z,0
2019-02-12T02:14:58.594Z,0
2019-02-12T02:16:08.275Z,0
2019-02-12T02:17:18.201Z,0
2019-02-12T02:18:28.124Z,0
2019-02-12T02:19:37.802Z,0
2019-02-12T02:20:47.496Z,0
2019-02-12T02:21:57.442Z,0
2019-02-12T02:23:06.887Z,0
2019-02-12T02:24:16.818Z,0
2019-02-12T02:25:26.748Z,0
2019-02-12T02:26:36.426Z,0
2019-02-12T02:27:46.106Z,0
2019-02-12T02:28:55.786Z,0
2019-02-12T02:30:05.486Z,0
2019-02-12T02:31:15.273Z,0
2019-02-12T02:32:24.767Z,0
2019-02-12T02:33:34.733Z,0
2019-02-12T02:34:43.941Z,0
2019-02-12T02:35:53.887Z,0
2019-02-12T02:37:03.610Z,0
2019-02-12T02:38:13.542Z,0
2019-02-12T02:39:23.493Z,0
2019-02-12T02:40:33.176Z,0
2019-02-12T02:41:42.862Z,0
2019-02-12T02:42:52.355Z,0
2019-02-12T02:44:02.318Z,0
2019-02-12T02:45:12.012Z,0
2019-02-12T02:46:21.724Z,0
2019-02-12T02:47:31.670Z,0
2019-02-12T02:48:41.668Z,0
2019-02-12T02:49:51.602Z,0
2019-02-12T02:51:01.306Z,0
2019-02-12T02:52:11.241Z,0
2019-02-12T02:53:21.185Z,0
2019-02-12T02:54:31.122Z,0
2019-02-12T02:55:40.825Z,0
2019-02-12T02:56:50.799Z,0
2019-02-12T02:58:00.474Z,0
2019-02-12T02:59:10.413Z,0
2019-02-12T03:00:20.423Z,0
2019-02-12T03:01:30.112Z,0
2019-02-12T03:02:40.043Z,0
2019-02-12T03:03:49.986Z,0
2019-02-12T03:04:59.189Z,0
2019-02-12T03:06:08.902Z,0
2019-02-12T03:07:18.834Z,0
2019-02-12T03:08:28.272Z,0
2019-02-12T03:09:37.962Z,0
2019-02-12T03:10:47.665Z,0
2019-02-12T03:11:59.931Z,0
2019-02-12T03:13:09.879Z,0
2019-02-12T03:14:19.567Z,0
2019-02-12T03:15:29.498Z,0
2019-02-12T03:16:39.181Z,0
2019-02-12T03:17:48.638Z,0
2019-02-12T03:18:58.346Z,0
2019-02-12T03:20:07.784Z,0
2019-02-12T03:21:17.735Z,0
2019-02-12T03:22:27.681Z,0
2019-02-12T03:23:37.629Z,0
2019-02-12T03:24:47.317Z,0
2019-02-12T03:25:57.008Z,0
2019-02-12T03:27:06.694Z,0
2019-02-12T03:28:16.678Z,0
2019-02-12T03:29:26.613Z,0
2019-02-12T03:30:36.607Z,0
2019-02-12T03:31:46.628Z,0
2019-02-12T03:32:56.632Z,0
2019-02-12T03:34:06.349Z,0
2019-02-12T03:35:16.163Z,0
2019-02-12T03:36:25.846Z,0
2019-02-12T03:37:35.782Z,0
2019-02-12T03:38:45.227Z,0
2019-02-12T03:39:54.659Z,0
2019-02-12T03:41:04.403Z,0
2019-02-12T03:42:14.083Z,0
2019-02-12T03:43:23.536Z,0
2019-02-12T03:44:33.467Z,0
2019-02-12T03:45:43.169Z,0
2019-02-12T03:46:52.854Z,0
2019-02-12T03:48:02.799Z,0
2019-02-12T03:49:12.773Z,0
2019-02-12T03:50:22.734Z,0
2019-02-12T03:51:32.177Z,0
2019-02-12T03:52:42.164Z,0
2019-02-12T03:53:51.852Z,0
2019-02-12T03:55:01.776Z,0
2019-02-12T03:56:11.449Z,0
2019-02-12T03:57:21.378Z,0
2019-02-12T03:58:31.307Z,0
2019-02-12T03:59:40.979Z,0
2019-02-12T04:00:50.917Z,0
2019-02-12T04:02:00.855Z,0
2019-02-12T04:03:10.809Z,0
2019-02-12T04:04:19.997Z,0
2019-02-12T04:05:29.949Z,0
2019-02-12T04:06:39.662Z,0
2019-02-12T04:07:49.376Z,0
2019-02-12T04:08:59.080Z,0
2019-02-12T04:10:09.059Z,0
2019-02-12T04:11:18.998Z,0
2019-02-12T04:12:28.424Z,0
2019-02-12T04:13:38.108Z,0
2019-02-12T04:14:48.039Z,0
2019-02-12T04:15:57.976Z,0
2019-02-12T04:17:07.670Z,0
2019-02-12T04:18:16.869Z,0
2019-02-12T04:19:26.804Z,0
2019-02-12T04:20:36.246Z,0
2019-02-12T04:21:45.936Z,0
2019-02-12T04:22:55.630Z,0
2019-02-12T04:24:05.573Z,0
2019-02-12T04:25:15.542Z,0
2019-02-12T04:26:24.984Z,0
2019-02-12T04:27:34.690Z,0
2019-02-12T04:28:44.635Z,0
2019-02-12T04:29:54.065Z,0
2019-02-12T04:31:04.012Z,0
2019-02-12T04:32:13.983Z,0
2019-02-12T04:33:23.421Z,0
2019-02-12T04:34:33.371Z,0
2019-02-12T04:35:42.821Z,0
2019-02-12T04:36:52.514Z,0
2019-02-12T04:38:02.204Z,0
2019-02-12T04:39:12.152Z,0
2019-02-12T04:40:22.078Z,0
2019-02-12T04:41:31.575Z,0
2019-02-12T04:42:41.516Z,0
2019-02-12T04:43:51.434Z,0
2019-02-12T04:45:01.266Z,0
2019-02-12T04:46:11.204Z,0
2019-02-12T04:47:20.882Z,0
2019-02-12T04:48:30.559Z,0
2019-02-12T04:49:40.256Z,0
2019-02-12T04:50:49.948Z,0
2019-02-12T04:51:59.879Z,0
2019-02-12T04:53:09.579Z,0
2019-02-12T04:54:18.771Z,0
2019-02-12T04:55:28.461Z,0
2019-02-12T04:56:38.412Z,0
2019-02-12T04:57:48.348Z,0
2019-02-12T04:58:58.297Z,0
2019-02-12T05:00:08.005Z,0
2019-02-12T05:01:17.939Z,0
2019-02-12T05:02:27.875Z,0
2019-02-12T05:03:37.824Z,0
2019-02-12T05:04:47.508Z,0
2019-02-12T05:05:57.438Z,0
2019-02-12T05:07:07.435Z,0
2019-02-12T05:08:17.124Z,0
2019-02-12T05:09:26.584Z,0
2019-02-12T05:10:36.261Z,0
2019-02-12T05:11:46.212Z,0
2019-02-12T05:12:56.144Z,0
2019-02-12T05:14:06.082Z,0
2019-02-12T05:15:16.018Z,0
2019-02-12T05:16:25.467Z,0
2019-02-12T05:17:35.423Z,0
2019-02-12T05:18:44.864Z,0
2019-02-12T05:19:54.536Z,0
2019-02-12T05:21:04.243Z,0
2019-02-12T05:22:13.936Z,0
2019-02-12T05:23:23.117Z,0
2019-02-12T05:24:32.808Z,0
2019-02-12T05:25:42.514Z,0
2019-02-12T05:26:52.220Z,0
2019-02-12T05:28:02.218Z,0
2019-02-12T05:29:11.711Z,0
2019-02-12T05:30:21.153Z,0
2019-02-12T05:31:31.121Z,0
2019-02-12T05:32:40.809Z,0
2019-02-12T05:33:50.511Z,0
2019-02-12T05:35:00.745Z,0
2019-02-12T05:36:10.696Z,0
2019-02-12T05:37:20.380Z,0
2019-02-12T05:38:29.843Z,0
2019-02-12T05:39:39.290Z,0
2019-02-12T05:40:48.490Z,0
2019-02-12T05:41:58.434Z,0
2019-02-12T05:43:08.129Z,0
2019-02-12T05:44:18.083Z,0
2019-02-12T05:45:28.024Z,0
2019-02-12T05:46:37.455Z,0
2019-02-12T05:47:47.160Z,0
2019-02-12T05:48:56.861Z,0
2019-02-12T05:50:06.801Z,0
2019-02-12T05:51:16.516Z,0
2019-02-12T05:52:26.472Z,0
2019-02-12T05:53:36.421Z,0
2019-02-12T05:54:46.368Z,0
2019-02-12T05:55:56.066Z,0
2019-02-12T05:57:05.796Z,0
2019-02-12T05:58:15.515Z,0
2019-02-12T05:59:24.966Z,0
2019-02-12T06:00:34.649Z,0
2019-02-12T06:01:44.593Z,0
2019-02-12T06:02:54.535Z,0
2019-02-12T06:04:04.601Z,0
2019-02-12T06:05:14.538Z,0
2019-02-12T06:06:24.328Z,0
2019-02-12T06:07:34.018Z,0
2019-02-12T06:08:43.732Z,0
2019-02-12T06:09:53.439Z,0
2019-02-12T06:11:03.128Z,0
2019-02-12T06:12:12.856Z,0
2019-02-12T06:13:22.291Z,0
2019-02-12T06:14:32.002Z,0
2019-02-12T06:15:41.941Z,0
2019-02-12T06:16:51.911Z,4
2019-02-12T06:18:01.334Z,4
2019-02-12T06:19:11.622Z,0
2019-02-12T06:20:21.638Z,4
2019-02-12T06:21:31.333Z,0
2019-02-12T06:22:41.297Z,4
2019-02-12T06:23:51.299Z,4
2019-02-12T06:25:00.976Z,4
2019-02-12T06:26:10.924Z,4
2019-02-12T06:27:20.647Z,8
2019-02-12T06:28:30.085Z,8
2019-02-12T06:29:39.789Z,12
2019-02-12T06:30:51.242Z,12
2019-02-12T06:32:01.186Z,16
2019-02-12T06:33:14.957Z,20
2019-02-12T06:34:24.897Z,20
2019-02-12T06:35:34.092Z,24
2019-02-12T06:36:43.774Z,28
2019-02-12T06:37:53.744Z,32
2019-02-12T06:39:03.721Z,40
2019-02-12T06:40:13.651Z,44
2019-02-12T06:41:23.610Z,56
2019-02-12T06:42:33.567Z,60
2019-02-12T06:43:43.247Z,72
2019-02-12T06:44:52.933Z,88
2019-02-12T06:46:02.891Z,100
2019-02-12T06:47:12.587Z,112
2019-02-12T06:48:22.291Z,128
2019-02-12T06:49:31.971Z,144
2019-02-12T06:50:41.642Z,164
2019-02-12T06:51:51.600Z,180
2019-02-12T06:53:01.524Z,200
2019-02-12T06:54:19.813Z,224
2019-02-12T06:55:29.744Z,244
2019-02-12T06:56:39.675Z,268
2019-02-12T06:57:49.397Z,292
2019-02-12T06:58:59.354Z,316
2019-02-12T07:00:08.869Z,348
2019-02-12T07:01:18.846Z,376
2019-02-12T07:02:28.807Z,404
2019-02-12T07:03:38.607Z,428
2019-02-12T07:04:48.279Z,444
2019-02-12T07:05:57.974Z,464
2019-02-12T07:07:07.657Z,484
2019-02-12T07:08:17.093Z,512
2019-02-12T07:09:26.793Z,544
2019-02-12T07:10:36.716Z,564
2019-02-12T07:11:46.419Z,588
2019-02-12T07:12:56.360Z,608
2019-02-12T07:14:06.298Z,624
2019-02-12T07:15:16.240Z,632
2019-02-12T07:16:26.238Z,648
2019-02-12T07:17:35.669Z,668
2019-02-12T07:18:45.600Z,700
2019-02-12T07:19:55.273Z,740
2019-02-12T07:21:05.202Z,780
2019-02-12T07:22:14.901Z,824
2019-02-12T07:23:28.691Z,880
2019-02-12T07:24:38.388Z,932
2019-02-12T07:25:48.325Z,984
2019-02-12T07:26:58.311Z,1032
2019-02-12T07:28:08.249Z,1080
2019-02-12T07:29:18.021Z,1124
2019-02-12T07:30:27.697Z,1160
2019-02-12T07:31:39.457Z,1184
2019-02-12T07:32:49.401Z,1200
2019-02-12T07:33:59.110Z,1212
2019-02-12T07:35:08.584Z,1244
2019-02-12T07:36:18.549Z,1288
2019-02-12T07:37:28.478Z,1336
2019-02-12T07:38:38.400Z,1392
2019-02-12T07:39:48.334Z,1464
2019-02-12T07:40:58.027Z,1532
2019-02-12T07:42:07.724Z,1604
2019-02-12T07:43:17.415Z,1668
2019-02-12T07:44:27.094Z,1724
2019-02-12T07:45:36.782Z,1788
2019-02-12T07:46:46.706Z,1848
2019-02-12T07:47:56.637Z,1904
2019-02-12T07:49:06.355Z,1956
2019-02-12T07:50:16.045Z,2004
2019-02-12T07:51:25.734Z,2068
2019-02-12T07:52:35.795Z,2128
2019-02-12T07:53:45.492Z,2188
2019-02-12T07:54:55.203Z,2220
2019-02-12T07:56:04.903Z,2236
2019-02-12T07:57:14.844Z,2236
2019-02-12T07:58:24.270Z,2232
2019-02-12T07:59:33.724Z,2240
2019-02-12T08:00:43.670Z,2252
2019-02-12T08:01:53.404Z,2276
2019-02-12T08:03:03.355Z,2320
2019-02-12T08:04:12.810Z,2368
2019-02-12T08:05:22.756Z,2400
2019-02-12T08:06:32.709Z,2468
2019-02-12T08:07:42.636Z,2508
2019-02-12T08:08:52.569Z,2584
2019-02-12T08:10:02.268Z,2624
2019-02-12T08:11:12.222Z,2704
2019-02-12T08:12:22.190Z,2812
2019-02-12T08:13:31.877Z,2760
2019-02-12T08:14:41.842Z,2772
2019-02-12T08:15:51.281Z,2812
2019-02-12T08:17:01.224Z,2864
2019-02-12T08:18:10.975Z,2908
2019-02-12T08:19:20.920Z,2936
2019-02-12T08:20:30.613Z,2988
2019-02-12T08:21:40.551Z,3052
2019-02-12T08:22:50.230Z,3092
2019-02-12T08:23:59.939Z,3100
2019-02-12T08:25:09.882Z,3120
2019-02-12T08:26:19.564Z,3140
2019-02-12T08:27:31.270Z,3148
2019-02-12T08:28:41.316Z,3160
2019-02-12T08:29:51.005Z,3188
2019-02-12T08:31:00.699Z,3204
2019-02-12T08:32:10.421Z,3244
2019-02-12T08:33:19.851Z,3280
2019-02-12T08:34:29.530Z,3316
2019-02-12T08:35:39.224Z,3352
2019-02-12T08:36:48.258Z,3380
2019-02-12T08:37:58.202Z,3412
2019-02-12T08:39:08.176Z,3448
2019-02-12T08:40:17.919Z,3488
2019-02-12T08:41:27.866Z,3524
2019-02-12T08:42:37.574Z,3560
2019-02-12T08:43:49.895Z,3580
2019-02-12T08:44:59.614Z,3584
2019-02-12T08:46:09.637Z,3580
2019-02-12T08:47:19.326Z,3544
2019-02-12T08:48:29.037Z,3512
2019-02-12T08:49:38.470Z,3480
2019-02-12T08:50:47.657Z,3464
2019-02-12T08:51:56.831Z,3448
2019-02-12T08:53:06.510Z,3428
2019-02-12T08:54:15.947Z,3416
2019-02-12T08:55:25.461Z,3400
2019-02-12T08:56:35.396Z,3396
2019-02-12T08:57:45.348Z,3424
2019-02-12T08:58:55.024Z,3516
2019-02-12T09:00:06.402Z,3648
2019-02-12T09:01:16.098Z,3772
2019-02-12T09:02:25.795Z,3780
2019-02-12T09:03:35.533Z,3836
2019-02-12T09:04:45.498Z,3864
2019-02-12T09:05:55.198Z,3900
2019-02-12T09:07:04.637Z,3860
2019-02-12T09:08:14.604Z,3828
2019-02-12T09:09:24.556Z,3784
2019-02-12T09:10:34.260Z,3732
2019-02-12T09:11:43.934Z,3668
2019-02-12T09:12:53.890Z,3660
2019-02-12T09:14:03.342Z,3588
2019-02-12T09:15:13.299Z,3528
2019-02-12T09:16:23.277Z,3460
2019-02-12T09:17:32.978Z,3412
2019-02-12T09:18:42.417Z,3516
2019-02-12T09:19:52.103Z,3352
2019-02-12T09:21:01.558Z,3288
2019-02-12T09:22:11.498Z,3272
2019-02-12T09:23:21.437Z,3264
2019-02-12T09:24:31.369Z,3240
2019-02-12T09:25:40.852Z,3224
2019-02-12T09:26:50.523Z,3228
2019-02-12T09:28:00.502Z,3236
2019-02-12T09:29:10.180Z,3220
2019-02-12T09:30:19.895Z,3244
2019-02-12T09:31:29.594Z,3152
2019-02-12T09:32:39.036Z,3112
2019-02-12T09:33:48.475Z,3132
2019-02-12T09:34:58.171Z,3156
2019-02-12T09:36:07.904Z,3332
2019-02-12T09:37:17.602Z,3288
2019-02-12T09:38:27.299Z,3256
2019-02-12T09:39:36.726Z,3368
2019-02-12T09:40:46.677Z,3520
2019-02-12T09:41:56.365Z,3704
2019-02-12T09:43:06.305Z,3840
2019-02-12T09:44:15.740Z,3924
2019-02-12T09:45:25.467Z,4000
2019-02-12T09:46:35.430Z,4048
2019-02-12T09:47:45.370Z,4160
2019-02-12T09:48:57.727Z,4316
2019-02-12T09:50:07.177Z,4412
2019-02-12T09:51:17.136Z,4676
2019-02-12T09:52:26.807Z,4896
2019-02-12T09:53:36.499Z,5064
2019-02-12T09:54:46.184Z,5208
2019-02-12T09:55:56.173Z,5304
2019-02-12T09:57:06.176Z,5376
2019-02-12T09:58:15.869Z,5516
2019-02-12T09:59:25.561Z,5724
2019-02-12T10:00:35.511Z,5928
2019-02-12T10:01:45.278Z,6092
2019-02-12T10:02:54.992Z,6180
2019-02-12T10:04:04.932Z,6120
2019-02-12T10:05:14.872Z,5940
2019-02-12T10:06:29.241Z,5772
2019-02-12T10:07:39.466Z,5720
2019-02-12T10:08:49.648Z,5752
2019-02-12T10:09:59.079Z,5912
2019-02-12T10:11:09.017Z,6116
2019-02-12T10:12:19.004Z,6300
2019-02-12T10:13:28.959Z,6400
2019-02-12T10:14:38.654Z,6436
2019-02-12T10:15:48.095Z,6468
2019-02-12T10:16:57.798Z,6536
2019-02-12T10:18:07.794Z,6600
2019-02-12T10:19:17.477Z,6684
2019-02-12T10:20:26.931Z,6772
2019-02-12T10:21:36.609Z,6852
2019-02-12T10:22:46.545Z,6856
2019-02-12T10:23:56.241Z,6800
2019-02-12T10:25:06.183Z,6728
2019-02-12T10:26:15.370Z,6668
2019-02-12T10:27:25.298Z,6656
2019-02-12T10:28:35.243Z,6684
2019-02-12T10:29:44.682Z,6732
2019-02-12T10:30:54.371Z,6828
2019-02-12T10:32:13.205Z,7000
2019-02-12T10:33:23.233Z,7192
2019-02-12T10:34:32.957Z,7420
2019-02-12T10:35:42.641Z,7584
2019-02-12T10:36:52.566Z,7616
2019-02-12T10:38:02.256Z,7516
2019-02-12T10:39:11.942Z,7380
2019-02-12T10:40:21.628Z,7272
2019-02-12T10:41:31.079Z,7236
2019-02-12T10:42:40.825Z,7260
2019-02-12T10:43:50.780Z,7312
2019-02-12T10:45:00.464Z,7340
2019-02-12T10:46:09.910Z,7368
2019-02-12T10:47:19.856Z,7408
2019-02-12T10:48:30.688Z,7496
2019-02-12T10:49:40.623Z,7608
2019-02-12T10:50:50.076Z,7708
2019-02-12T10:51:59.753Z,7828
2019-02-12T10:53:11.432Z,7944
2019-02-12T10:54:27.563Z,8064
2019-02-12T10:55:37.908Z,8076
2019-02-12T10:56:47.891Z,8052
2019-02-12T10:57:57.099Z,8156
2019-02-12T10:59:07.061Z,8324
2019-02-12T11:00:16.765Z,8448
2019-02-12T11:01:26.701Z,8412
2019-02-12T11:02:36.140Z,8272
2019-02-12T11:03:45.579Z,8192
2019-02-12T11:04:55.507Z,8152
2019-02-12T11:06:05.512Z,8036
2019-02-12T11:07:15.439Z,7932
2019-02-12T11:08:25.369Z,7892
2019-02-12T11:09:35.296Z,7888
2019-02-12T11:10:45.249Z,7784
2019-02-12T11:11:54.938Z,7628
2019-02-12T11:13:04.871Z,7496
2019-02-12T11:14:14.546Z,7336
2019-02-12T11:15:24.221Z,7300
2019-02-12T11:16:34.172Z,7272
2019-02-12T11:17:43.852Z,7172
2019-02-12T11:18:53.782Z,7336
2019-02-12T11:20:03.214Z,7852
2019-02-12T11:21:19.175Z,7808
2019-02-12T11:22:28.862Z,8752
2019-02-12T11:23:38.296Z,9660
2019-02-12T11:24:47.728Z,9996
2019-02-12T11:25:57.408Z,9552
2019-02-12T11:27:06.839Z,9476
2019-02-12T11:28:16.790Z,9580
2019-02-12T11:29:26.480Z,9452
2019-02-12T11:30:37.815Z,8632
2019-02-12T11:31:47.756Z,8048
2019-02-12T11:32:57.702Z,8088
2019-02-12T11:34:07.399Z,7656
2019-02-12T11:35:17.330Z,7480
2019-02-12T11:36:27.033Z,7256
2019-02-12T11:37:36.713Z,7292
2019-02-12T11:38:46.398Z,6980
2019-02-12T11:39:56.081Z,7396
2019-02-12T11:41:05.785Z,7868
2019-02-12T11:42:15.722Z,6808
2019-02-12T11:43:24.911Z,7204
2019-02-12T11:44:34.096Z,9948
2019-02-12T11:45:43.530Z,8840
2019-02-12T11:46:52.960Z,9316
2019-02-12T11:48:02.388Z,8876
2019-02-12T11:49:12.079Z,9452
2019-02-12T11:50:21.263Z,9228
2019-02-12T11:51:30.694Z,9176
2019-02-12T11:52:40.632Z,9172
2019-02-12T11:53:50.330Z,8852
2019-02-12T11:55:00.004Z,9096
2019-02-12T11:56:09.440Z,9148
2019-02-12T11:57:20.377Z,9216
2019-02-12T11:58:30.060Z,9792
2019-02-12T11:59:39.759Z,10032
2019-02-12T12:00:49.459Z,10416
2019-02-12T12:01:59.136Z,10412
2019-02-12T12:03:08.827Z,10120
2019-02-12T12:04:18.757Z,10004
2019-02-12T12:05:28.454Z,9620
2019-02-12T12:06:38.174Z,9192
2019-02-12T12:07:47.892Z,9300
2019-02-12T12:08:57.822Z,9076
2019-02-12T12:10:07.465Z,9188
2019-02-12T12:11:17.154Z,9076
2019-02-12T12:12:27.089Z,8428
2019-02-12T12:13:36.522Z,8456
2019-02-12T12:14:46.013Z,8152
2019-02-12T12:15:55.705Z,8424
2019-02-12T12:17:05.386Z,8404
2019-02-12T12:18:15.320Z,8524
2019-02-12T12:19:25.000Z,8188
2019-02-12T12:20:34.705Z,8096
2019-02-12T12:21:45.515Z,7704
2019-02-12T12:22:55.282Z,7088
2019-02-12T12:24:05.225Z,7020
2019-02-12T12:25:15.176Z,7060
2019-02-12T12:26:24.878Z,7200
2019-02-12T12:27:34.607Z,7524
2019-02-12T12:28:45.808Z,7748
2019-02-12T12:29:55.237Z,8088
2019-02-12T12:31:04.922Z,7912
2019-02-12T12:32:14.355Z,7752
2019-02-12T12:33:23.295Z,7924
2019-02-12T12:34:33.234Z,7752
2019-02-12T12:35:43.176Z,7496
2019-02-12T12:36:52.853Z,7228
2019-02-12T12:38:02.283Z,7096
2019-02-12T12:39:12.221Z,6504
2019-02-12T12:40:21.660Z,6396
2019-02-12T12:41:31.600Z,6160
2019-02-12T12:42:41.281Z,5916
2019-02-12T12:43:50.725Z,5708
2019-02-12T12:45:00.678Z,5612
2019-02-12T12:46:09.868Z,5308
2019-02-12T12:47:20.292Z,4468
2019-02-12T12:48:29.748Z,4088
2019-02-12T12:49:39.449Z,3728
2019-02-12T12:50:49.160Z,3616
2019-02-12T12:51:58.362Z,3944
2019-02-12T12:53:07.800Z,4420
2019-02-12T12:54:17.487Z,4924
2019-02-12T12:55:27.862Z,5096
2019-02-12T12:56:37.551Z,5184
2019-02-12T12:57:48.925Z,5172
2019-02-12T12:58:58.364Z,4800
2019-02-12T13:00:08.065Z,4584
2019-02-12T13:01:17.512Z,4856
2019-02-12T13:02:27.441Z,4776
2019-02-12T13:03:37.143Z,4768
2019-02-12T13:04:46.322Z,4660
2019-02-12T13:05:55.515Z,4104
2019-02-12T13:07:05.196Z,4228
2019-02-12T13:08:14.882Z,3716
2019-02-12T13:09:24.079Z,3480
2019-02-12T13:10:33.521Z,3948
2019-02-12T13:11:42.449Z,4676
2019-02-12T13:12:52.141Z,4896
2019-02-12T13:14:01.588Z,5080
2019-02-12T13:15:11.274Z,4936
2019-02-12T13:16:20.955Z,5196
2019-02-12T13:17:30.892Z,6276
2019-02-12T13:18:40.897Z,6940
2019-02-12T13:19:50.578Z,7248
2019-02-12T13:21:01.629Z,7052
2019-02-12T13:22:10.566Z,6712
2019-02-12T13:23:20.261Z,6064
2019-02-12T13:24:29.199Z,5116
2019-02-12T13:25:38.893Z,4568
2019-02-12T13:26:48.823Z,4952
2019-02-12T13:27:58.265Z,5056
2019-02-12T13:29:07.950Z,4912
2019-02-12T13:30:17.381Z,5276
2019-02-12T13:31:27.306Z,5600
2019-02-12T13:32:36.247Z,5608
2019-02-12T13:33:45.935Z,5756
2019-02-12T13:34:55.888Z,6528
2019-02-12T13:36:05.826Z,7476
2019-02-12T13:37:15.249Z,8860
2019-02-12T13:38:24.938Z,9776
2019-02-12T13:39:34.619Z,10104
2019-02-12T13:40:44.327Z,9720
2019-02-12T13:41:54.280Z,8204
2019-02-12T13:43:03.714Z,7716
2019-02-12T13:44:13.146Z,8572
2019-02-12T13:45:23.080Z,9172
2019-02-12T13:46:33.016Z,9380
2019-02-12T13:47:42.438Z,9512
2019-02-12T13:48:51.884Z,9216
2019-02-12T13:50:01.737Z,8760
2019-02-12T13:51:11.432Z,8932
2019-02-12T13:52:21.112Z,9668
2019-02-12T13:53:30.533Z,10404
2019-02-12T13:54:40.467Z,10076
2019-02-12T13:55:49.931Z,10184
2019-02-12T13:56:59.615Z,10964
2019-02-12T13:58:09.543Z,11048
2019-02-12T13:59:19.221Z,10312
2019-02-12T14:00:28.927Z,9744
2019-02-12T14:01:38.865Z,9296
2019-02-12T14:02:48.832Z,8972
2019-02-12T14:03:58.608Z,8344
2019-02-12T14:05:08.366Z,8480
2019-02-12T14:06:17.734Z,10016
2019-02-12T14:07:27.709Z,10192
2019-02-12T14:08:37.437Z,10552
2019-02-12T14:09:46.865Z,15936
2019-02-12T14:10:56.558Z,20416
2019-02-12T14:12:06.494Z,19968
2019-02-12T14:13:15.932Z,18560
2019-02-12T14:14:26.453Z,20320
2019-02-12T14:15:35.897Z,24320
2019-02-12T14:16:45.587Z,22496
2019-02-12T14:17:56.130Z,24864
2019-02-12T14:19:05.927Z,18784
2019-02-12T14:20:15.879Z,17280
2019-02-12T14:21:25.572Z,12668
2019-02-12T14:22:35.013Z,9868
2019-02-12T14:23:44.949Z,8536
2019-02-12T14:24:54.639Z,8532
2019-02-12T14:26:04.583Z,8500
2019-02-12T14:27:14.267Z,8716
2019-02-12T14:28:23.450Z,9660
2019-02-12T14:29:33.127Z,11452
2019-02-12T14:30:42.834Z,8136
2019-02-12T14:32:00.167Z,5672
2019-02-12T14:33:10.141Z,4416
2019-02-12T14:34:19.331Z,3932
2019-02-12T14:35:29.031Z,2132
2019-02-12T14:36:38.477Z,1728
2019-02-12T14:37:48.174Z,1572
2019-02-12T14:38:58.329Z,1396
2019-02-12T14:40:08.262Z,1188
2019-02-12T14:41:17.726Z,1052
2019-02-12T14:42:27.670Z,1048
2019-02-12T14:43:37.374Z,1248
2019-02-12T14:44:47.062Z,1884
2019-02-12T14:45:56.797Z,3828
2019-02-12T14:47:06.760Z,4376
2019-02-12T14:48:16.194Z,2100
2019-02-12T14:49:25.880Z,2980
2019-02-12T14:50:35.318Z,4956
2019-02-12T14:51:45.263Z,6816
2019-02-12T14:52:54.942Z,7380
2019-02-12T14:54:04.640Z,8380
2019-02-12T14:55:15.014Z,8540
2019-02-12T14:56:24.696Z,7728
2019-02-12T14:57:34.375Z,6636
2019-02-12T14:58:43.805Z,5648
2019-02-12T14:59:53.737Z,5256
2019-02-12T15:01:03.437Z,5220
2019-02-12T15:02:13.136Z,5084
2019-02-12T15:03:23.080Z,4816
2019-02-12T15:04:32.762Z,4572
2019-02-12T15:05:42.463Z,4380
2019-02-12T15:06:52.399Z,4208
2019-02-12T15:08:02.093Z,4100
2019-02-12T15:09:11.778Z,3980
2019-02-12T15:10:21.459Z,3780
2019-02-12T15:11:30.407Z,3356
2019-02-12T15:12:40.090Z,3072
2019-02-12T15:13:49.529Z,2984
2019-02-12T15:14:59.224Z,2768
2019-02-12T15:16:08.910Z,2476
2019-02-12T15:17:18.592Z,2276
2019-02-12T15:18:28.272Z,2256
2019-02-12T15:19:37.699Z,2652
2019-02-12T15:20:47.640Z,3456
2019-02-12T15:21:57.333Z,4128
2019-02-12T15:23:07.014Z,4284
2019-02-12T15:24:16.443Z,4244
2019-02-12T15:25:26.120Z,4188
2019-02-12T15:26:35.809Z,4160
2019-02-12T15:27:45.751Z,4156
2019-02-12T15:28:55.958Z,4204
2019-02-12T15:30:05.429Z,4168
2019-02-12T15:31:14.870Z,4148
2019-02-12T15:32:24.822Z,4060
2019-02-12T15:33:34.769Z,3888
2019-02-12T15:34:44.720Z,3576
2019-02-12T15:35:54.648Z,3256
2019-02-12T15:37:04.085Z,3104
2019-02-12T15:38:14.020Z,3120
2019-02-12T15:39:23.952Z,2980
2019-02-12T15:40:33.648Z,2680
2019-02-12T15:41:43.356Z,2472
2019-02-12T15:42:52.593Z,2572
2019-02-12T15:44:02.293Z,2808
2019-02-12T15:45:11.483Z,3080
2019-02-12T15:46:21.170Z,3220
2019-02-12T15:47:30.610Z,3296
2019-02-12T15:48:40.534Z,3356
2019-02-12T15:49:50.462Z,3280
2019-02-12T15:51:00.153Z,3196
2019-02-12T15:52:09.866Z,3124
2019-02-12T15:53:19.541Z,3040
2019-02-12T15:54:29.215Z,2948
2019-02-12T15:55:53.695Z,2880
2019-02-12T15:57:03.128Z,2816
2019-02-12T15:58:14.851Z,2728
2019-02-12T15:59:24.783Z,2552
2019-02-12T16:00:34.462Z,2432
2019-02-12T16:01:44.139Z,2288
2019-02-12T16:02:58.359Z,2148
2019-02-12T16:04:08.305Z,2008
2019-02-12T16:05:19.650Z,1892
2019-02-12T16:06:29.079Z,1788
2019-02-12T16:07:38.811Z,1692
2019-02-12T16:08:51.583Z,1580
2019-02-12T16:10:04.201Z,1428